sensor_id;sensor_type;location;lat;lon;timestamp;P1;durP1;ratioP1;P2;durP2;ratioP2
28762;SDS011;15918;51.270;6.522;2023-07-08T00:00:10;4.47;;;3.10;;
28762;SDS011;15918;51.270;6.522;2023-07-08T00:02:38;5.38;;;3.47;;
28762;SDS011;15918;51.270;6.522;2023-07-08T00:05:05;4.57;;;3.45;;
28762;SDS011;15918;51.270;6.522;2023-07-08T00:07:31;5.00;;;3.90;;
28762;SDS011;15918;51.270;6.522;2023-07-08T00:09:56;5.03;;;3.25;;
28762;SDS011;15918;51.270;6.522;2023-07-08T00:12:22;3.67;;;3.38;;
28762;SDS011;15918;51.270;6.522;2023-07-08T00:14:47;4.70;;;3.33;;
28762;SDS011;15918;51.270;6.522;2023-07-08T00:17:13;6.30;;;3.60;;
28762;SDS011;15918;51.270;6.522;2023-07-08T00:19:39;4.22;;;3.50;;
28762;SDS011;15918;51.270;6.522;2023-07-08T00:22:14;4.53;;;3.58;;
28762;SDS011;15918;51.270;6.522;2023-07-08T00:24:41;3.42;;;3.13;;
28762;SDS011;15918;51.270;6.522;2023-07-08T00:27:08;3.42;;;3.13;;
28762;SDS011;15918;51.270;6.522;2023-07-08T00:29:37;3.50;;;3.17;;
28762;SDS011;15918;51.270;6.522;2023-07-08T00:32:07;3.90;;;3.60;;
28762;SDS011;15918;51.270;6.522;2023-07-08T00:34:35;3.88;;;3.20;;
28762;SDS011;15918;51.270;6.522;2023-07-08T00:37:00;4.22;;;3.28;;
28762;SDS011;15918;51.270;6.522;2023-07-08T00:39:28;5.20;;;3.42;;
28762;SDS011;15918;51.270;6.522;2023-07-08T00:41:54;3.50;;;3.10;;
28762;SDS011;15918;51.270;6.522;2023-07-08T00:44:20;3.95;;;3.55;;
28762;SDS011;15918;51.270;6.522;2023-07-08T00:49:40;4.70;;;3.50;;
28762;SDS011;15918;51.270;6.522;2023-07-08T00:52:20;4.65;;;2.92;;
28762;SDS011;15918;51.270;6.522;2023-07-08T00:54:51;4.35;;;3.30;;
28762;SDS011;15918;51.270;6.522;2023-07-08T00:57:19;3.83;;;3.35;;
28762;SDS011;15918;51.270;6.522;2023-07-08T00:59:49;4.47;;;3.30;;
28762;SDS011;15918;51.270;6.522;2023-07-08T01:02:20;5.40;;;3.20;;
28762;SDS011;15918;51.270;6.522;2023-07-08T01:05:25;5.93;;;3.42;;
28762;SDS011;15918;51.270;6.522;2023-07-08T01:07:55;3.35;;;2.88;;
28762;SDS011;15918;51.270;6.522;2023-07-08T01:10:27;4.50;;;3.65;;
28762;SDS011;15918;51.270;6.522;2023-07-08T01:12:58;3.78;;;2.92;;
28762;SDS011;15918;51.270;6.522;2023-07-08T01:15:30;4.97;;;3.13;;
28762;SDS011;15918;51.270;6.522;2023-07-08T01:18:01;4.57;;;3.72;;
28762;SDS011;15918;51.270;6.522;2023-07-08T01:20:27;3.63;;;3.33;;
28762;SDS011;15918;51.270;6.522;2023-07-08T01:22:52;5.45;;;3.67;;
28762;SDS011;15918;51.270;6.522;2023-07-08T01:25:18;4.05;;;3.50;;
28762;SDS011;15918;51.270;6.522;2023-07-08T01:27:45;5.20;;;3.60;;
28762;SDS011;15918;51.270;6.522;2023-07-08T01:30:14;4.47;;;3.20;;
28762;SDS011;15918;51.270;6.522;2023-07-08T01:32:43;4.15;;;3.60;;
28762;SDS011;15918;51.270;6.522;2023-07-08T01:35:13;5.20;;;3.83;;
28762;SDS011;15918;51.270;6.522;2023-07-08T01:37:40;4.32;;;3.63;;
28762;SDS011;15918;51.270;6.522;2023-07-08T01:40:16;5.07;;;4.22;;
28762;SDS011;15918;51.270;6.522;2023-07-08T01:42:48;4.03;;;3.55;;
28762;SDS011;15918;51.270;6.522;2023-07-08T01:45:15;4.40;;;3.55;;
28762;SDS011;15918;51.270;6.522;2023-07-08T01:47:46;4.90;;;3.80;;
28762;SDS011;15918;51.270;6.522;2023-07-08T01:50:32;4.57;;;3.90;;
28762;SDS011;15918;51.270;6.522;2023-07-08T01:53:02;5.40;;;3.85;;
28762;SDS011;15918;51.270;6.522;2023-07-08T01:55:33;4.05;;;3.45;;
28762;SDS011;15918;51.270;6.522;2023-07-08T01:57:59;4.38;;;3.95;;
28762;SDS011;15918;51.270;6.522;2023-07-08T02:00:24;5.68;;;4.05;;
28762;SDS011;15918;51.270;6.522;2023-07-08T02:02:50;5.15;;;3.80;;
28762;SDS011;15918;51.270;6.522;2023-07-08T02:05:16;4.63;;;3.50;;
28762;SDS011;15918;51.270;6.522;2023-07-08T02:07:42;4.38;;;3.55;;
28762;SDS011;15918;51.270;6.522;2023-07-08T02:10:07;6.05;;;3.65;;
28762;SDS011;15918;51.270;6.522;2023-07-08T02:12:33;4.15;;;3.70;;
28762;SDS011;15918;51.270;6.522;2023-07-08T02:14:59;5.75;;;3.65;;
28762;SDS011;15918;51.270;6.522;2023-07-08T02:17:25;5.95;;;4.00;;
28762;SDS011;15918;51.270;6.522;2023-07-08T02:19:53;4.75;;;4.13;;
28762;SDS011;15918;51.270;6.522;2023-07-08T02:22:20;4.10;;;3.50;;
28762;SDS011;15918;51.270;6.522;2023-07-08T02:24:45;4.18;;;3.78;;
28762;SDS011;15918;51.270;6.522;2023-07-08T02:27:11;3.85;;;3.45;;
28762;SDS011;15918;51.270;6.522;2023-07-08T02:29:36;6.00;;;3.92;;
28762;SDS011;15918;51.270;6.522;2023-07-08T02:32:03;5.25;;;4.30;;
28762;SDS011;15918;51.270;6.522;2023-07-08T02:34:29;6.35;;;3.90;;
28762;SDS011;15918;51.270;6.522;2023-07-08T02:36:55;3.85;;;3.50;;
28762;SDS011;15918;51.270;6.522;2023-07-08T02:39:21;4.43;;;3.72;;
28762;SDS011;15918;51.270;6.522;2023-07-08T02:41:47;4.78;;;4.10;;
28762;SDS011;15918;51.270;6.522;2023-07-08T02:44:13;4.53;;;3.92;;
28762;SDS011;15918;51.270;6.522;2023-07-08T02:46:38;4.75;;;4.15;;
28762;SDS011;15918;51.270;6.522;2023-07-08T02:49:04;5.72;;;4.00;;
28762;SDS011;15918;51.270;6.522;2023-07-08T02:51:30;4.22;;;3.80;;
28762;SDS011;15918;51.270;6.522;2023-07-08T02:53:56;3.65;;;3.35;;
28762;SDS011;15918;51.270;6.522;2023-07-08T02:56:22;3.88;;;3.55;;
28762;SDS011;15918;51.270;6.522;2023-07-08T02:58:48;7.50;;;3.65;;
28762;SDS011;15918;51.270;6.522;2023-07-08T03:01:14;4.50;;;3.78;;
28762;SDS011;15918;51.270;6.522;2023-07-08T03:03:43;7.78;;;4.53;;
28762;SDS011;15918;51.270;6.522;2023-07-08T03:06:12;4.15;;;3.67;;
28762;SDS011;15918;51.270;6.522;2023-07-08T03:08:38;4.93;;;3.72;;
28762;SDS011;15918;51.270;6.522;2023-07-08T03:11:04;4.57;;;3.75;;
28762;SDS011;15918;51.270;6.522;2023-07-08T03:13:32;3.83;;;3.42;;
28762;SDS011;15918;51.270;6.522;2023-07-08T03:15:59;3.75;;;3.45;;
28762;SDS011;15918;51.270;6.522;2023-07-08T03:18:25;4.13;;;3.75;;
28762;SDS011;15918;51.270;6.522;2023-07-08T03:20:52;4.75;;;3.95;;
28762;SDS011;15918;51.270;6.522;2023-07-08T03:23:23;6.03;;;4.53;;
28762;SDS011;15918;51.270;6.522;2023-07-08T03:25:49;5.05;;;3.92;;
28762;SDS011;15918;51.270;6.522;2023-07-08T03:28:14;6.07;;;4.25;;
28762;SDS011;15918;51.270;6.522;2023-07-08T03:30:41;5.50;;;4.20;;
28762;SDS011;15918;51.270;6.522;2023-07-08T03:33:07;4.63;;;3.85;;
28762;SDS011;15918;51.270;6.522;2023-07-08T03:35:33;4.63;;;4.10;;
28762;SDS011;15918;51.270;6.522;2023-07-08T03:37:59;5.32;;;3.70;;
28762;SDS011;15918;51.270;6.522;2023-07-08T03:40:24;7.03;;;4.32;;
28762;SDS011;15918;51.270;6.522;2023-07-08T03:42:50;4.82;;;3.50;;
28762;SDS011;15918;51.270;6.522;2023-07-08T03:45:16;4.97;;;4.28;;
28762;SDS011;15918;51.270;6.522;2023-07-08T03:47:41;5.75;;;4.15;;
28762;SDS011;15918;51.270;6.522;2023-07-08T03:50:17;8.70;;;4.15;;
28762;SDS011;15918;51.270;6.522;2023-07-08T03:52:45;6.05;;;3.88;;
28762;SDS011;15918;51.270;6.522;2023-07-08T03:55:12;5.40;;;3.95;;
28762;SDS011;15918;51.270;6.522;2023-07-08T03:57:38;5.25;;;4.07;;
28762;SDS011;15918;51.270;6.522;2023-07-08T04:00:04;4.70;;;4.30;;
28762;SDS011;15918;51.270;6.522;2023-07-08T04:02:34;6.72;;;3.92;;
28762;SDS011;15918;51.270;6.522;2023-07-08T04:05:06;5.22;;;3.80;;
28762;SDS011;15918;51.270;6.522;2023-07-08T04:07:37;4.80;;;3.80;;
28762;SDS011;15918;51.270;6.522;2023-07-08T04:10:03;4.35;;;3.90;;
28762;SDS011;15918;51.270;6.522;2023-07-08T04:12:29;6.43;;;4.25;;
28762;SDS011;15918;51.270;6.522;2023-07-08T04:14:54;5.55;;;4.20;;
28762;SDS011;15918;51.270;6.522;2023-07-08T04:17:20;5.95;;;4.28;;
28762;SDS011;15918;51.270;6.522;2023-07-08T04:19:48;5.32;;;4.82;;
28762;SDS011;15918;51.270;6.522;2023-07-08T04:22:14;6.65;;;4.35;;
28762;SDS011;15918;51.270;6.522;2023-07-08T04:24:39;5.85;;;4.25;;
28762;SDS011;15918;51.270;6.522;2023-07-08T04:27:05;4.50;;;3.95;;
28762;SDS011;15918;51.270;6.522;2023-07-08T04:29:30;5.75;;;4.68;;
28762;SDS011;15918;51.270;6.522;2023-07-08T04:31:56;6.35;;;4.38;;
28762;SDS011;15918;51.270;6.522;2023-07-08T04:34:22;8.02;;;4.38;;
28762;SDS011;15918;51.270;6.522;2023-07-08T04:36:47;5.45;;;4.10;;
28762;SDS011;15918;51.270;6.522;2023-07-08T04:39:13;6.07;;;4.43;;
28762;SDS011;15918;51.270;6.522;2023-07-08T04:41:39;5.90;;;4.70;;
28762;SDS011;15918;51.270;6.522;2023-07-08T04:44:12;5.75;;;4.38;;
28762;SDS011;15918;51.270;6.522;2023-07-08T04:46:39;4.30;;;3.85;;
28762;SDS011;15918;51.270;6.522;2023-07-08T04:49:10;6.65;;;4.75;;
28762;SDS011;15918;51.270;6.522;2023-07-08T04:51:36;5.82;;;4.50;;
28762;SDS011;15918;51.270;6.522;2023-07-08T04:54:06;8.18;;;4.90;;
28762;SDS011;15918;51.270;6.522;2023-07-08T04:59:02;6.82;;;4.30;;
28762;SDS011;15918;51.270;6.522;2023-07-08T05:01:28;6.22;;;4.25;;
28762;SDS011;15918;51.270;6.522;2023-07-08T05:03:53;5.25;;;4.55;;
28762;SDS011;15918;51.270;6.522;2023-07-08T05:06:19;5.40;;;4.50;;
28762;SDS011;15918;51.270;6.522;2023-07-08T05:08:44;5.10;;;4.05;;
28762;SDS011;15918;51.270;6.522;2023-07-08T05:11:10;5.22;;;4.22;;
28762;SDS011;15918;51.270;6.522;2023-07-08T05:13:35;6.03;;;4.50;;
28762;SDS011;15918;51.270;6.522;2023-07-08T05:16:01;6.78;;;4.63;;
28762;SDS011;15918;51.270;6.522;2023-07-08T05:18:27;6.68;;;4.95;;
28762;SDS011;15918;51.270;6.522;2023-07-08T05:20:52;6.63;;;4.32;;
28762;SDS011;15918;51.270;6.522;2023-07-08T05:23:19;5.80;;;5.00;;
28762;SDS011;15918;51.270;6.522;2023-07-08T05:25:46;6.07;;;4.75;;
28762;SDS011;15918;51.270;6.522;2023-07-08T05:28:11;7.10;;;4.40;;
28762;SDS011;15918;51.270;6.522;2023-07-08T05:30:39;4.65;;;4.07;;
28762;SDS011;15918;51.270;6.522;2023-07-08T05:33:05;6.68;;;4.63;;
28762;SDS011;15918;51.270;6.522;2023-07-08T05:35:31;7.68;;;5.15;;
28762;SDS011;15918;51.270;6.522;2023-07-08T05:37:56;6.43;;;4.80;;
28762;SDS011;15918;51.270;6.522;2023-07-08T05:40:22;7.60;;;5.05;;
28762;SDS011;15918;51.270;6.522;2023-07-08T05:42:47;4.80;;;4.20;;
28762;SDS011;15918;51.270;6.522;2023-07-08T05:45:13;6.95;;;4.80;;
28762;SDS011;15918;51.270;6.522;2023-07-08T05:47:39;9.43;;;5.15;;
28762;SDS011;15918;51.270;6.522;2023-07-08T05:50:05;8.35;;;5.70;;
28762;SDS011;15918;51.270;6.522;2023-07-08T05:52:31;7.22;;;5.05;;
28762;SDS011;15918;51.270;6.522;2023-07-08T05:54:56;10.07;;;6.15;;
28762;SDS011;15918;51.270;6.522;2023-07-08T05:57:22;9.18;;;5.90;;
28762;SDS011;15918;51.270;6.522;2023-07-08T05:59:51;11.70;;;7.28;;
28762;SDS011;15918;51.270;6.522;2023-07-08T06:02:18;9.57;;;6.47;;
28762;SDS011;15918;51.270;6.522;2023-07-08T06:04:46;11.98;;;6.60;;
28762;SDS011;15918;51.270;6.522;2023-07-08T06:07:12;12.15;;;7.45;;
28762;SDS011;15918;51.270;6.522;2023-07-08T06:09:37;8.75;;;7.28;;
28762;SDS011;15918;51.270;6.522;2023-07-08T06:12:03;10.57;;;7.53;;
28762;SDS011;15918;51.270;6.522;2023-07-08T06:14:29;9.93;;;6.53;;
28762;SDS011;15918;51.270;6.522;2023-07-08T06:16:54;9.90;;;6.85;;
28762;SDS011;15918;51.270;6.522;2023-07-08T06:19:23;8.27;;;6.55;;
28762;SDS011;15918;51.270;6.522;2023-07-08T06:21:48;7.43;;;6.28;;
28762;SDS011;15918;51.270;6.522;2023-07-08T06:24:14;10.88;;;6.80;;
28762;SDS011;15918;51.270;6.522;2023-07-08T06:26:40;11.90;;;7.38;;
28762;SDS011;15918;51.270;6.522;2023-07-08T06:29:05;12.85;;;7.13;;
28762;SDS011;15918;51.270;6.522;2023-07-08T06:31:31;9.15;;;6.53;;
28762;SDS011;15918;51.270;6.522;2023-07-08T06:33:56;10.70;;;7.50;;
28762;SDS011;15918;51.270;6.522;2023-07-08T06:36:22;10.02;;;7.00;;
28762;SDS011;15918;51.270;6.522;2023-07-08T06:38:48;9.10;;;6.82;;
28762;SDS011;15918;51.270;6.522;2023-07-08T06:41:14;9.18;;;6.18;;
28762;SDS011;15918;51.270;6.522;2023-07-08T06:43:39;18.23;;;6.22;;
28762;SDS011;15918;51.270;6.522;2023-07-08T06:46:05;13.68;;;6.32;;
28762;SDS011;15918;51.270;6.522;2023-07-08T06:48:31;9.90;;;6.50;;
28762;SDS011;15918;51.270;6.522;2023-07-08T06:50:57;6.90;;;5.68;;
28762;SDS011;15918;51.270;6.522;2023-07-08T06:53:23;7.93;;;6.25;;
28762;SDS011;15918;51.270;6.522;2023-07-08T06:55:49;11.13;;;6.80;;
28762;SDS011;15918;51.270;6.522;2023-07-08T06:58:15;8.40;;;6.65;;
28762;SDS011;15918;51.270;6.522;2023-07-08T07:00:42;6.82;;;6.13;;
28762;SDS011;15918;51.270;6.522;2023-07-08T07:03:08;7.80;;;6.53;;
28762;SDS011;15918;51.270;6.522;2023-07-08T07:05:34;7.60;;;6.70;;
28762;SDS011;15918;51.270;6.522;2023-07-08T07:07:59;7.40;;;6.60;;
28762;SDS011;15918;51.270;6.522;2023-07-08T07:10:25;8.23;;;6.30;;
28762;SDS011;15918;51.270;6.522;2023-07-08T07:12:51;7.75;;;6.72;;
28762;SDS011;15918;51.270;6.522;2023-07-08T07:15:16;8.45;;;6.25;;
28762;SDS011;15918;51.270;6.522;2023-07-08T07:17:42;7.32;;;6.50;;
28762;SDS011;15918;51.270;6.522;2023-07-08T07:20:07;9.63;;;6.70;;
28762;SDS011;15918;51.270;6.522;2023-07-08T07:22:33;10.98;;;6.68;;
28762;SDS011;15918;51.270;6.522;2023-07-08T07:24:59;10.15;;;6.88;;
28762;SDS011;15918;51.270;6.522;2023-07-08T07:27:26;11.35;;;7.32;;
28762;SDS011;15918;51.270;6.522;2023-07-08T07:29:51;11.30;;;7.53;;
28762;SDS011;15918;51.270;6.522;2023-07-08T07:32:18;13.98;;;7.10;;
28762;SDS011;15918;51.270;6.522;2023-07-08T07:34:47;8.30;;;6.63;;
28762;SDS011;15918;51.270;6.522;2023-07-08T07:37:13;7.88;;;6.75;;
28762;SDS011;15918;51.270;6.522;2023-07-08T07:39:41;7.78;;;6.88;;
28762;SDS011;15918;51.270;6.522;2023-07-08T07:42:07;10.43;;;7.43;;
28762;SDS011;15918;51.270;6.522;2023-07-08T07:44:33;9.35;;;7.28;;
28762;SDS011;15918;51.270;6.522;2023-07-08T07:46:59;10.90;;;6.45;;
28762;SDS011;15918;51.270;6.522;2023-07-08T07:49:25;10.63;;;6.70;;
28762;SDS011;15918;51.270;6.522;2023-07-08T07:51:50;9.43;;;7.18;;
28762;SDS011;15918;51.270;6.522;2023-07-08T07:54:16;9.13;;;7.20;;
28762;SDS011;15918;51.270;6.522;2023-07-08T07:56:41;8.60;;;7.32;;
28762;SDS011;15918;51.270;6.522;2023-07-08T07:59:07;8.73;;;6.88;;
28762;SDS011;15918;51.270;6.522;2023-07-08T08:01:32;7.68;;;6.53;;
28762;SDS011;15918;51.270;6.522;2023-07-08T08:03:58;9.80;;;6.95;;
28762;SDS011;15918;51.270;6.522;2023-07-08T08:06:24;8.80;;;7.25;;
28762;SDS011;15918;51.270;6.522;2023-07-08T08:08:50;7.75;;;6.95;;
28762;SDS011;15918;51.270;6.522;2023-07-08T08:11:16;8.85;;;6.82;;
28762;SDS011;15918;51.270;6.522;2023-07-08T08:13:42;11.20;;;7.22;;
28762;SDS011;15918;51.270;6.522;2023-07-08T08:16:07;11.05;;;7.13;;
28762;SDS011;15918;51.270;6.522;2023-07-08T08:18:33;8.10;;;7.28;;
28762;SDS011;15918;51.270;6.522;2023-07-08T08:20:59;9.25;;;6.95;;
28762;SDS011;15918;51.270;6.522;2023-07-08T08:23:25;7.47;;;6.72;;
28762;SDS011;15918;51.270;6.522;2023-07-08T08:25:50;11.23;;;7.18;;
28762;SDS011;15918;51.270;6.522;2023-07-08T08:28:16;10.70;;;7.43;;
28762;SDS011;15918;51.270;6.522;2023-07-08T08:30:42;9.43;;;7.70;;
28762;SDS011;15918;51.270;6.522;2023-07-08T08:33:14;9.48;;;7.45;;
28762;SDS011;15918;51.270;6.522;2023-07-08T08:35:41;9.23;;;6.93;;
28762;SDS011;15918;51.270;6.522;2023-07-08T08:38:08;8.73;;;7.80;;
28762;SDS011;15918;51.270;6.522;2023-07-08T08:40:33;8.75;;;7.10;;
28762;SDS011;15918;51.270;6.522;2023-07-08T08:43:06;11.68;;;7.22;;
28762;SDS011;15918;51.270;6.522;2023-07-08T08:45:39;10.77;;;7.45;;
28762;SDS011;15918;51.270;6.522;2023-07-08T08:48:16;10.60;;;7.45;;
28762;SDS011;15918;51.270;6.522;2023-07-08T08:53:18;11.65;;;6.97;;
28762;SDS011;15918;51.270;6.522;2023-07-08T08:55:53;8.25;;;7.22;;
28762;SDS011;15918;51.270;6.522;2023-07-08T08:58:40;10.32;;;7.63;;
28762;SDS011;15918;51.270;6.522;2023-07-08T09:01:15;8.88;;;7.30;;
28762;SDS011;15918;51.270;6.522;2023-07-08T09:06:11;8.27;;;7.20;;
28762;SDS011;15918;51.270;6.522;2023-07-08T09:13:59;13.50;;;8.30;;
28762;SDS011;15918;51.270;6.522;2023-07-08T09:16:26;9.77;;;7.88;;
28762;SDS011;15918;51.270;6.522;2023-07-08T09:21:24;11.43;;;8.07;;
28762;SDS011;15918;51.270;6.522;2023-07-08T09:24:16;8.85;;;7.50;;
28762;SDS011;15918;51.270;6.522;2023-07-08T09:26:45;13.00;;;7.60;;
28762;SDS011;15918;51.270;6.522;2023-07-08T09:29:15;8.80;;;7.35;;
28762;SDS011;15918;51.270;6.522;2023-07-08T09:31:42;9.48;;;6.78;;
28762;SDS011;15918;51.270;6.522;2023-07-08T09:34:12;9.20;;;7.50;;
28762;SDS011;15918;51.270;6.522;2023-07-08T09:36:41;9.65;;;7.38;;
28762;SDS011;15918;51.270;6.522;2023-07-08T09:39:12;13.93;;;8.25;;
28762;SDS011;15918;51.270;6.522;2023-07-08T09:41:40;10.73;;;7.70;;
28762;SDS011;15918;51.270;6.522;2023-07-08T09:46:48;12.55;;;7.72;;
28762;SDS011;15918;51.270;6.522;2023-07-08T09:51:47;7.57;;;6.68;;
28762;SDS011;15918;51.270;6.522;2023-07-08T09:54:17;27.23;;;7.43;;
28762;SDS011;15918;51.270;6.522;2023-07-08T09:56:47;13.43;;;7.75;;
28762;SDS011;15918;51.270;6.522;2023-07-08T09:59:21;8.90;;;7.32;;
28762;SDS011;15918;51.270;6.522;2023-07-08T10:01:51;12.63;;;7.47;;
28762;SDS011;15918;51.270;6.522;2023-07-08T10:04:19;8.73;;;6.47;;
28762;SDS011;15918;51.270;6.522;2023-07-08T10:06:44;8.93;;;7.18;;
28762;SDS011;15918;51.270;6.522;2023-07-08T10:09:14;8.13;;;7.25;;
28762;SDS011;15918;51.270;6.522;2023-07-08T10:11:47;8.27;;;7.07;;
28762;SDS011;15918;51.270;6.522;2023-07-08T10:17:09;11.98;;;7.10;;
28762;SDS011;15918;51.270;6.522;2023-07-08T10:19:40;9.48;;;6.82;;
28762;SDS011;15918;51.270;6.522;2023-07-08T10:25:14;8.48;;;7.18;;
28762;SDS011;15918;51.270;6.522;2023-07-08T10:27:40;10.38;;;7.50;;
28762;SDS011;15918;51.270;6.522;2023-07-08T10:48:24;9.68;;;6.93;;
28762;SDS011;15918;51.270;6.522;2023-07-08T10:56:21;8.38;;;6.28;;
28762;SDS011;15918;51.270;6.522;2023-07-08T11:09:24;7.03;;;6.32;;
28762;SDS011;15918;51.270;6.522;2023-07-08T11:12:03;10.30;;;7.15;;
28762;SDS011;15918;51.270;6.522;2023-07-08T11:14:42;9.90;;;6.38;;
28762;SDS011;15918;51.270;6.522;2023-07-08T11:17:32;8.13;;;6.75;;
28762;SDS011;15918;51.270;6.522;2023-07-08T11:23:23;8.23;;;6.63;;
28762;SDS011;15918;51.270;6.522;2023-07-08T11:25:50;10.85;;;7.18;;
28762;SDS011;15918;51.270;6.522;2023-07-08T11:28:23;12.32;;;7.22;;
28762;SDS011;15918;51.270;6.522;2023-07-08T11:30:49;8.70;;;6.65;;
28762;SDS011;15918;51.270;6.522;2023-07-08T11:33:17;7.90;;;6.32;;
28762;SDS011;15918;51.270;6.522;2023-07-08T11:35:48;11.27;;;6.95;;
28762;SDS011;15918;51.270;6.522;2023-07-08T11:38:17;7.43;;;6.60;;
28762;SDS011;15918;51.270;6.522;2023-07-08T11:40:52;7.18;;;6.38;;
28762;SDS011;15918;51.270;6.522;2023-07-08T11:43:21;13.88;;;7.50;;
28762;SDS011;15918;51.270;6.522;2023-07-08T11:45:49;8.70;;;6.45;;
28762;SDS011;15918;51.270;6.522;2023-07-08T11:48:19;10.32;;;6.22;;
28762;SDS011;15918;51.270;6.522;2023-07-08T11:50:49;10.00;;;6.43;;
28762;SDS011;15918;51.270;6.522;2023-07-08T11:55:58;8.07;;;6.55;;
28762;SDS011;15918;51.270;6.522;2023-07-08T11:58:49;10.77;;;6.78;;
28762;SDS011;15918;51.270;6.522;2023-07-08T12:01:24;11.48;;;7.75;;
28762;SDS011;15918;51.270;6.522;2023-07-08T12:04:15;10.43;;;6.55;;
28762;SDS011;15918;51.270;6.522;2023-07-08T12:06:48;7.40;;;5.95;;
28762;SDS011;15918;51.270;6.522;2023-07-08T12:09:23;8.70;;;6.30;;
28762;SDS011;15918;51.270;6.522;2023-07-08T12:12:00;7.13;;;6.03;;
28762;SDS011;15918;51.270;6.522;2023-07-08T12:14:28;9.65;;;6.60;;
28762;SDS011;15918;51.270;6.522;2023-07-08T12:16:55;9.75;;;6.72;;
28762;SDS011;15918;51.270;6.522;2023-07-08T12:19:21;7.45;;;6.45;;
28762;SDS011;15918;51.270;6.522;2023-07-08T12:21:50;7.72;;;6.28;;
28762;SDS011;15918;51.270;6.522;2023-07-08T12:24:17;11.98;;;6.35;;
28762;SDS011;15918;51.270;6.522;2023-07-08T12:26:43;8.50;;;6.50;;
28762;SDS011;15918;51.270;6.522;2023-07-08T12:29:12;8.00;;;6.50;;
28762;SDS011;15918;51.270;6.522;2023-07-08T12:31:39;8.50;;;5.88;;
28762;SDS011;15918;51.270;6.522;2023-07-08T12:34:10;8.80;;;5.93;;
28762;SDS011;15918;51.270;6.522;2023-07-08T12:36:40;9.18;;;6.00;;
28762;SDS011;15918;51.270;6.522;2023-07-08T12:39:08;10.43;;;6.57;;
28762;SDS011;15918;51.270;6.522;2023-07-08T12:41:40;7.10;;;6.18;;
28762;SDS011;15918;51.270;6.522;2023-07-08T12:47:06;9.32;;;5.80;;
28762;SDS011;15918;51.270;6.522;2023-07-08T12:49:32;8.57;;;6.05;;
28762;SDS011;15918;51.270;6.522;2023-07-08T12:51:58;8.02;;;5.60;;
28762;SDS011;15918;51.270;6.522;2023-07-08T12:54:24;7.85;;;5.72;;
28762;SDS011;15918;51.270;6.522;2023-07-08T12:56:52;8.27;;;6.65;;
28762;SDS011;15918;51.270;6.522;2023-07-08T12:59:20;9.95;;;6.05;;
28762;SDS011;15918;51.270;6.522;2023-07-08T13:01:47;12.98;;;6.30;;
28762;SDS011;15918;51.270;6.522;2023-07-08T13:04:15;8.35;;;6.13;;
28762;SDS011;15918;51.270;6.522;2023-07-08T13:06:42;11.95;;;6.40;;
28762;SDS011;15918;51.270;6.522;2023-07-08T13:11:53;9.55;;;6.43;;
28762;SDS011;15918;51.270;6.522;2023-07-08T13:14:21;9.20;;;5.93;;
28762;SDS011;15918;51.270;6.522;2023-07-08T13:16:48;8.07;;;6.28;;
28762;SDS011;15918;51.270;6.522;2023-07-08T13:19:14;10.40;;;6.38;;
28762;SDS011;15918;51.270;6.522;2023-07-08T13:21:40;10.13;;;6.07;;
28762;SDS011;15918;51.270;6.522;2023-07-08T13:24:09;7.88;;;5.53;;
28762;SDS011;15918;51.270;6.522;2023-07-08T13:26:36;9.60;;;5.95;;
28762;SDS011;15918;51.270;6.522;2023-07-08T13:29:12;8.70;;;6.50;;
28762;SDS011;15918;51.270;6.522;2023-07-08T13:31:46;7.65;;;5.90;;
28762;SDS011;15918;51.270;6.522;2023-07-08T13:34:15;8.18;;;6.05;;
28762;SDS011;15918;51.270;6.522;2023-07-08T13:36:44;9.45;;;6.50;;
28762;SDS011;15918;51.270;6.522;2023-07-08T13:39:31;8.57;;;5.78;;
28762;SDS011;15918;51.270;6.522;2023-07-08T13:41:59;7.75;;;5.95;;
28762;SDS011;15918;51.270;6.522;2023-07-08T13:44:25;8.02;;;5.78;;
28762;SDS011;15918;51.270;6.522;2023-07-08T13:46:53;10.23;;;6.32;;
28762;SDS011;15918;51.270;6.522;2023-07-08T13:49:40;6.80;;;5.15;;
28762;SDS011;15918;51.270;6.522;2023-07-08T13:54:40;10.27;;;5.57;;
28762;SDS011;15918;51.270;6.522;2023-07-08T13:57:15;10.30;;;6.07;;
28762;SDS011;15918;51.270;6.522;2023-07-08T13:59:42;7.78;;;6.10;;
28762;SDS011;15918;51.270;6.522;2023-07-08T14:02:15;9.05;;;6.28;;
28762;SDS011;15918;51.270;6.522;2023-07-08T14:04:46;10.52;;;5.65;;
28762;SDS011;15918;51.270;6.522;2023-07-08T14:07:15;8.07;;;5.80;;
28762;SDS011;15918;51.270;6.522;2023-07-08T14:09:43;8.43;;;6.57;;
28762;SDS011;15918;51.270;6.522;2023-07-08T14:12:08;7.85;;;5.93;;
28762;SDS011;15918;51.270;6.522;2023-07-08T14:14:34;10.52;;;5.95;;
28762;SDS011;15918;51.270;6.522;2023-07-08T14:17:00;9.95;;;5.97;;
28762;SDS011;15918;51.270;6.522;2023-07-08T14:19:28;9.75;;;5.97;;
28762;SDS011;15918;51.270;6.522;2023-07-08T14:21:57;9.70;;;5.80;;
28762;SDS011;15918;51.270;6.522;2023-07-08T14:24:24;13.65;;;6.15;;
28762;SDS011;15918;51.270;6.522;2023-07-08T14:26:50;8.55;;;5.60;;
28762;SDS011;15918;51.270;6.522;2023-07-08T14:29:17;8.95;;;6.10;;
28762;SDS011;15918;51.270;6.522;2023-07-08T14:31:42;13.40;;;5.85;;
28762;SDS011;15918;51.270;6.522;2023-07-08T14:34:12;10.73;;;6.30;;
28762;SDS011;15918;51.270;6.522;2023-07-08T14:36:41;8.77;;;6.07;;
28762;SDS011;15918;51.270;6.522;2023-07-08T14:39:10;7.20;;;5.70;;
28762;SDS011;15918;51.270;6.522;2023-07-08T14:41:38;7.50;;;5.95;;
28762;SDS011;15918;51.270;6.522;2023-07-08T14:44:16;8.98;;;5.90;;
28762;SDS011;15918;51.270;6.522;2023-07-08T14:46:47;7.60;;;6.05;;
28762;SDS011;15918;51.270;6.522;2023-07-08T14:49:15;5.68;;;5.05;;
28762;SDS011;15918;51.270;6.522;2023-07-08T14:51:42;9.25;;;6.50;;
28762;SDS011;15918;51.270;6.522;2023-07-08T14:54:08;9.98;;;6.28;;
28762;SDS011;15918;51.270;6.522;2023-07-08T14:56:34;9.13;;;5.72;;
28762;SDS011;15918;51.270;6.522;2023-07-08T14:58:59;15.65;;;6.47;;
28762;SDS011;15918;51.270;6.522;2023-07-08T15:01:25;8.20;;;6.40;;
28762;SDS011;15918;51.270;6.522;2023-07-08T15:03:54;13.30;;;6.60;;
28762;SDS011;15918;51.270;6.522;2023-07-08T15:06:20;9.57;;;6.60;;
28762;SDS011;15918;51.270;6.522;2023-07-08T15:08:47;8.85;;;6.50;;
28762;SDS011;15918;51.270;6.522;2023-07-08T15:11:13;7.82;;;6.88;;
28762;SDS011;15918;51.270;6.522;2023-07-08T15:13:39;9.98;;;5.95;;
28762;SDS011;15918;51.270;6.522;2023-07-08T15:16:10;8.38;;;6.55;;
28762;SDS011;15918;51.270;6.522;2023-07-08T15:18:39;9.13;;;6.55;;
28762;SDS011;15918;51.270;6.522;2023-07-08T15:21:04;8.80;;;6.07;;
28762;SDS011;15918;51.270;6.522;2023-07-08T15:23:35;9.20;;;6.75;;
28762;SDS011;15918;51.270;6.522;2023-07-08T15:26:01;8.85;;;6.45;;
28762;SDS011;15918;51.270;6.522;2023-07-08T15:31:08;7.63;;;6.22;;
28762;SDS011;15918;51.270;6.522;2023-07-08T15:33:38;8.15;;;5.82;;
28762;SDS011;15918;51.270;6.522;2023-07-08T15:36:03;10.85;;;6.32;;
28762;SDS011;15918;51.270;6.522;2023-07-08T15:38:29;9.75;;;6.10;;
28762;SDS011;15918;51.270;6.522;2023-07-08T15:40:55;6.60;;;5.95;;
28762;SDS011;15918;51.270;6.522;2023-07-08T15:43:20;8.65;;;6.60;;
28762;SDS011;15918;51.270;6.522;2023-07-08T15:45:46;8.23;;;6.05;;
28762;SDS011;15918;51.270;6.522;2023-07-08T15:48:12;7.38;;;6.22;;
28762;SDS011;15918;51.270;6.522;2023-07-08T15:50:42;13.10;;;6.95;;
28762;SDS011;15918;51.270;6.522;2023-07-08T15:53:08;8.52;;;6.43;;
28762;SDS011;15918;51.270;6.522;2023-07-08T15:55:37;9.80;;;6.22;;
28762;SDS011;15918;51.270;6.522;2023-07-08T15:58:06;9.82;;;5.80;;
28762;SDS011;15918;51.270;6.522;2023-07-08T16:00:38;7.22;;;6.43;;
28762;SDS011;15918;51.270;6.522;2023-07-08T16:03:06;10.65;;;6.65;;
28762;SDS011;15918;51.270;6.522;2023-07-08T16:05:35;10.50;;;6.13;;
28762;SDS011;15918;51.270;6.522;2023-07-08T16:08:01;7.75;;;6.53;;
28762;SDS011;15918;51.270;6.522;2023-07-08T16:10:28;9.40;;;6.05;;